createdAt,value
2023-01-19T00:00:49.254Z,2.83
2023-01-19T00:03:18.606Z,3.70
2023-01-19T00:05:51.439Z,3.20
2023-01-19T00:08:20.846Z,3.20
2023-01-19T00:10:52.630Z,2.65
2023-01-19T00:13:22.188Z,2.70
2023-01-19T00:15:52.198Z,2.47
2023-01-19T00:18:21.825Z,2.85
2023-01-19T00:20:51.307Z,2.75
2023-01-19T00:23:22.443Z,2.80
2023-01-19T00:25:53.899Z,2.53
2023-01-19T00:28:23.593Z,2.85
2023-01-19T00:30:53.481Z,2.65
2023-01-19T00:33:24.910Z,2.95
2023-01-19T00:35:55.172Z,2.00
2023-01-19T00:38:24.744Z,2.97
2023-01-19T00:40:56.078Z,3.10
2023-01-19T00:43:24.929Z,2.53
2023-01-19T00:45:54.280Z,2.53
2023-01-19T00:48:23.941Z,3.22
2023-01-19T00:50:53.289Z,2.20
2023-01-19T00:53:24.847Z,2.30
2023-01-19T00:55:55.157Z,2.95
2023-01-19T00:58:26.653Z,2.72
2023-01-19T01:00:57.921Z,2.78
2023-01-19T01:03:28.622Z,3.03
2023-01-19T01:05:58.136Z,3.53
2023-01-19T01:08:27.631Z,2.60
2023-01-19T01:10:58.708Z,2.95
2023-01-19T01:13:30.657Z,2.67
2023-01-19T01:16:00.334Z,2.70
2023-01-19T01:18:29.879Z,2.33
2023-01-19T01:21:02.971Z,2.50
2023-01-19T01:23:34.977Z,3.13
2023-01-19T01:26:04.399Z,2.33
2023-01-19T01:28:35.273Z,2.83
2023-01-19T01:31:04.781Z,2.67
2023-01-19T01:33:40.653Z,2.60
2023-01-19T01:36:12.030Z,2.85
2023-01-19T01:38:42.115Z,2.70
2023-01-19T01:41:11.744Z,2.47
2023-01-19T01:43:50.514Z,3.60
2023-01-19T01:46:20.627Z,2.80
2023-01-19T01:48:51.762Z,3.08
2023-01-19T01:51:27.720Z,2.90
2023-01-19T01:54:00.739Z,1.80
2023-01-19T01:56:34.712Z,2.10
2023-01-19T01:59:08.016Z,2.85
2023-01-19T02:01:55.686Z,2.17
2023-01-19T02:04:25.864Z,2.05
2023-01-19T02:07:13.011Z,2.50
2023-01-19T02:09:59.997Z,2.28
2023-01-19T02:12:49.079Z,2.65
2023-01-19T02:15:21.535Z,2.10
2023-01-19T02:17:51.010Z,2.30
2023-01-19T02:20:20.852Z,2.70
2023-01-19T02:22:51.466Z,2.00
2023-01-19T02:25:22.772Z,2.63
2023-01-19T02:27:52.472Z,2.55
2023-01-19T02:30:22.154Z,2.15
2023-01-19T02:32:54.750Z,3.13
2023-01-19T02:35:24.688Z,2.63
2023-01-19T02:37:54.812Z,2.33
2023-01-19T02:40:25.687Z,2.83
2023-01-19T02:43:01.223Z,1.73
2023-01-19T02:45:31.971Z,2.15
2023-01-19T02:48:05.287Z,2.97
2023-01-19T02:50:43.829Z,3.97
2023-01-19T02:53:19.962Z,2.30
2023-01-19T02:55:53.792Z,2.35
2023-01-19T02:58:26.227Z,2.83
2023-01-19T03:00:59.186Z,3.03
2023-01-19T03:03:32.790Z,2.88
2023-01-19T03:06:06.150Z,2.85
2023-01-19T03:08:43.508Z,3.67
2023-01-19T03:11:15.562Z,2.53
2023-01-19T03:13:49.759Z,2.42
2023-01-19T03:16:22.821Z,2.17
2023-01-19T03:18:55.168Z,3.25
2023-01-19T03:21:26.872Z,2.97
2023-01-19T03:26:32.548Z,2.70
2023-01-19T03:29:03.047Z,2.25
2023-01-19T03:31:34.291Z,3.28
2023-01-19T03:34:10.049Z,3.70
2023-01-19T03:36:49.160Z,2.42
2023-01-19T03:39:21.766Z,2.60
2023-01-19T03:41:54.385Z,2.33
2023-01-19T03:44:24.803Z,2.63
2023-01-19T03:46:55.317Z,2.83
2023-01-19T03:49:25.015Z,2.58
2023-01-19T03:51:57.064Z,2.75
2023-01-19T03:54:26.610Z,2.53
2023-01-19T03:56:59.575Z,3.05
2023-01-19T03:59:30.710Z,2.70
2023-01-19T04:02:00.553Z,3.05
2023-01-19T04:04:29.883Z,2.40
2023-01-19T04:06:59.112Z,3.25
2023-01-19T04:09:28.728Z,2.50
2023-01-19T04:12:01.695Z,3.33
2023-01-19T04:14:31.500Z,3.22
2023-01-19T04:17:01.047Z,2.65
2023-01-19T04:19:30.719Z,3.53
2023-01-19T04:22:02.092Z,4.25
2023-01-19T04:24:31.454Z,2.53
2023-01-19T04:27:02.755Z,2.70
2023-01-19T04:29:32.240Z,2.58
2023-01-19T04:32:01.889Z,3.58
2023-01-19T04:34:31.361Z,2.58
2023-01-19T04:37:00.984Z,2.75
2023-01-19T04:39:30.706Z,3.10
2023-01-19T04:42:02.851Z,3.20
2023-01-19T04:44:34.013Z,3.28
2023-01-19T04:47:04.182Z,3.00
2023-01-19T04:50:00.391Z,2.90
2023-01-19T04:52:35.143Z,3.05
2023-01-19T04:55:04.725Z,3.70
2023-01-19T04:57:36.015Z,3.63
2023-01-19T05:00:08.176Z,3.03
2023-01-19T05:02:37.480Z,3.45
2023-01-19T05:05:07.480Z,2.83
2023-01-19T05:07:37.493Z,2.70
2023-01-19T05:10:10.075Z,2.95
2023-01-19T05:12:40.227Z,3.42
2023-01-19T05:15:15.694Z,2.92
2023-01-19T05:17:46.025Z,2.83
2023-01-19T05:20:16.558Z,2.55
2023-01-19T05:22:52.112Z,3.00
2023-01-19T05:25:23.946Z,4.53
2023-01-19T05:27:53.664Z,2.45
2023-01-19T05:30:25.182Z,3.35
2023-01-19T05:32:54.681Z,3.03
2023-01-19T05:35:35.738Z,2.85
2023-01-19T05:38:06.078Z,3.40
2023-01-19T05:40:39.013Z,3.38
2023-01-19T05:43:12.093Z,3.00
2023-01-19T05:45:43.429Z,2.80
2023-01-19T05:48:13.334Z,3.22
2023-01-19T06:58:03.207Z,3.90
2023-01-19T07:00:45.499Z,3.65
2023-01-19T07:03:28.585Z,3.63
2023-01-19T07:06:28.558Z,5.40
2023-01-19T07:09:07.217Z,4.40
2023-01-19T07:14:17.260Z,4.22
2023-01-19T07:16:47.555Z,3.88
2023-01-19T07:19:17.266Z,5.13
2023-01-19T07:21:51.354Z,5.10
2023-01-19T07:24:21.025Z,4.40
2023-01-19T07:26:50.900Z,5.35
2023-01-19T07:29:22.357Z,4.05
2023-01-19T07:31:54.808Z,5.10
2023-01-19T07:34:24.718Z,4.32
2023-01-19T07:36:54.169Z,4.65
2023-01-19T07:39:24.181Z,5.63
2023-01-19T07:41:53.769Z,4.70
2023-01-19T07:44:27.883Z,4.75
2023-01-19T07:46:59.371Z,3.63
2023-01-19T07:49:28.619Z,4.95
2023-01-19T07:51:57.950Z,4.30
2023-01-19T07:54:28.421Z,4.55
2023-01-19T07:56:57.603Z,4.50
2023-01-19T07:59:29.766Z,4.63
2023-01-19T08:02:02.372Z,4.78
2023-01-19T08:04:32.064Z,6.22
2023-01-19T08:07:01.733Z,4.28
2023-01-19T08:09:31.452Z,4.93
2023-01-19T08:12:00.997Z,4.10
2023-01-19T08:14:31.929Z,3.80
2023-01-19T08:17:02.081Z,4.72
2023-01-19T08:19:31.899Z,6.93
2023-01-19T08:22:06.302Z,7.68
2023-01-19T08:24:35.846Z,7.22
2023-01-19T08:27:08.380Z,7.60
2023-01-19T08:29:39.259Z,7.07
2023-01-19T08:32:08.925Z,8.43
2023-01-19T08:34:44.895Z,6.95
2023-01-19T08:37:14.108Z,6.68
2023-01-19T08:39:43.469Z,6.53
2023-01-19T08:42:12.834Z,6.38
2023-01-19T08:44:57.243Z,6.20
2023-01-19T08:47:27.903Z,7.25
2023-01-19T08:49:58.174Z,9.02
2023-01-19T08:52:35.704Z,8.98
2023-01-19T08:55:10.471Z,9.30
2023-01-19T08:58:12.717Z,7.63
2023-01-19T09:01:17.507Z,7.75
2023-01-19T09:03:52.084Z,6.50
2023-01-19T09:06:23.994Z,6.22
2023-01-19T09:08:54.722Z,6.45
2023-01-19T09:11:29.315Z,7.25
2023-01-19T09:14:01.374Z,5.78
2023-01-19T09:16:32.691Z,5.60
2023-01-19T09:19:02.077Z,5.68
2023-01-19T09:21:31.680Z,6.60
2023-01-19T09:24:01.530Z,5.70
2023-01-19T09:26:34.905Z,6.00
2023-01-19T09:29:04.625Z,6.00
2023-01-19T09:31:36.780Z,4.82
2023-01-19T09:34:06.274Z,4.20
2023-01-19T09:36:36.726Z,4.45
2023-01-19T09:39:06.135Z,4.40
2023-01-19T09:41:36.904Z,4.72
2023-01-19T09:44:19.923Z,4.47
2023-01-19T09:46:56.738Z,4.63
2023-01-19T09:49:30.366Z,3.83
2023-01-19T09:52:05.760Z,4.38
2023-01-19T09:54:39.318Z,4.28
2023-01-19T09:57:11.887Z,4.20
2023-01-19T09:59:43.942Z,5.18
2023-01-19T10:02:21.874Z,4.75
2023-01-19T10:04:57.291Z,4.88
2023-01-19T10:07:34.999Z,3.42
2023-01-19T10:10:07.788Z,2.50
2023-01-19T10:12:41.144Z,2.80
2023-01-19T10:15:17.106Z,2.50
2023-01-19T10:17:51.952Z,3.03
2023-01-19T10:20:26.372Z,3.40
2023-01-19T10:22:57.003Z,3.17
2023-01-19T10:25:26.714Z,2.78
2023-01-19T10:27:56.238Z,2.47
2023-01-19T10:30:26.937Z,2.33
2023-01-19T10:32:57.629Z,4.20
2023-01-19T10:35:27.022Z,3.13
2023-01-19T10:37:58.178Z,3.30
2023-01-19T10:40:30.758Z,2.83
2023-01-19T10:43:00.101Z,2.50
2023-01-19T10:45:31.107Z,3.00
2023-01-19T10:48:03.776Z,3.05
2023-01-19T10:50:34.241Z,2.70
2023-01-19T10:53:05.806Z,3.22
2023-01-19T10:55:39.014Z,2.60
2023-01-19T10:58:08.433Z,3.08
2023-01-19T11:00:38.315Z,2.22
2023-01-19T11:03:24.457Z,2.80
2023-01-19T11:05:54.414Z,2.15
2023-01-19T11:08:24.475Z,1.75
2023-01-19T11:10:58.587Z,1.95
2023-01-19T11:13:27.748Z,1.33
2023-01-19T11:15:58.844Z,2.13
2023-01-19T11:18:30.482Z,1.92
2023-01-19T11:23:31.263Z,2.72
2023-01-19T11:26:01.712Z,4.13
2023-01-19T11:28:33.553Z,5.18
2023-01-19T11:31:04.074Z,3.05
2023-01-19T11:33:39.662Z,2.95
2023-01-19T11:36:09.703Z,2.38
2023-01-19T11:38:43.544Z,2.40
2023-01-19T11:41:19.033Z,1.98
2023-01-19T11:43:49.584Z,2.90
2023-01-19T11:46:19.707Z,2.25
2023-01-19T11:48:56.584Z,1.58
2023-01-19T11:51:27.256Z,2.33
2023-01-19T11:53:56.235Z,1.52
2023-01-19T11:56:29.095Z,1.85
2023-01-19T11:58:58.509Z,2.33
2023-01-19T12:01:30.057Z,1.48
2023-01-19T12:04:02.435Z,2.33
2023-01-19T12:06:32.929Z,2.60
2023-01-19T12:09:03.667Z,2.08
2023-01-19T12:11:34.119Z,2.28
2023-01-19T12:14:04.007Z,2.20
2023-01-19T12:16:34.563Z,1.70
2023-01-19T12:19:06.291Z,2.20
2023-01-19T12:24:07.513Z,1.60
2023-01-19T12:26:38.582Z,2.15
2023-01-19T12:29:10.093Z,2.28
2023-01-19T12:31:40.687Z,1.88
2023-01-19T12:34:40.249Z,1.70
2023-01-19T12:37:29.599Z,1.40
2023-01-19T12:40:01.678Z,2.03
2023-01-19T12:42:31.616Z,1.92
2023-01-19T12:45:07.595Z,4.07
2023-01-19T12:47:37.158Z,2.10
2023-01-19T12:50:07.414Z,1.77
2023-01-19T12:52:37.480Z,2.22
2023-01-19T12:55:20.028Z,1.50
2023-01-19T12:57:52.232Z,1.95
2023-01-19T13:00:45.388Z,2.30
2023-01-19T13:03:33.847Z,1.75
2023-01-19T13:06:02.944Z,1.95
2023-01-19T13:08:47.045Z,1.90
2023-01-19T13:11:19.897Z,2.10
2023-01-19T13:14:08.385Z,2.72
2023-01-19T13:17:02.243Z,1.80
2023-01-19T13:19:39.444Z,2.35
2023-01-19T13:22:30.058Z,2.20
2023-01-19T13:25:11.105Z,2.45
2023-01-19T13:27:42.728Z,2.22
2023-01-19T13:32:42.974Z,1.88
2023-01-19T13:35:15.998Z,2.75
2023-01-19T13:37:46.482Z,1.90
2023-01-19T13:40:20.188Z,1.83
2023-01-19T13:42:51.756Z,2.17
2023-01-19T13:45:28.388Z,2.40
2023-01-19T13:47:58.856Z,2.22
2023-01-19T13:50:29.704Z,1.85
2023-01-19T13:52:59.460Z,1.75
2023-01-19T13:55:29.521Z,1.60
2023-01-19T13:57:59.940Z,1.77
2023-01-19T14:00:29.778Z,1.70
2023-01-19T14:03:00.392Z,1.48
2023-01-19T14:05:31.241Z,1.58
2023-01-19T14:08:07.868Z,2.10
2023-01-19T14:10:38.083Z,1.58
2023-01-19T14:13:14.901Z,1.50
2023-01-19T14:15:44.371Z,1.60
2023-01-19T14:18:22.546Z,1.98
2023-01-19T14:20:58.022Z,2.08
2023-01-19T14:23:55.225Z,2.30
2023-01-19T14:26:46.233Z,2.55
2023-01-19T14:29:27.702Z,3.13
2023-01-19T14:32:13.927Z,2.45
2023-01-19T14:34:44.557Z,2.20
2023-01-19T14:37:19.794Z,2.05
2023-01-19T14:39:51.139Z,2.20
2023-01-19T14:42:25.645Z,2.20
2023-01-19T14:44:57.439Z,2.05
2023-01-19T14:49:56.479Z,2.47
2023-01-19T14:52:28.123Z,3.17
2023-01-19T14:54:58.325Z,2.15
2023-01-19T14:57:27.875Z,1.70
2023-01-19T14:59:58.239Z,3.05
2023-01-19T15:02:27.828Z,2.80
2023-01-19T15:04:57.867Z,2.72
2023-01-19T15:07:28.753Z,3.13
2023-01-19T15:09:57.820Z,2.85
2023-01-19T15:12:28.927Z,2.50
2023-01-19T15:14:59.453Z,2.55
2023-01-19T15:17:31.348Z,1.73
2023-01-19T15:22:30.348Z,1.90
2023-01-19T15:25:00.376Z,1.77
2023-01-19T15:27:29.655Z,1.60
2023-01-19T15:30:00.769Z,1.67
2023-01-19T15:32:30.091Z,3.03
2023-01-19T15:34:59.322Z,13.30
2023-01-19T15:37:33.039Z,8.10
2023-01-19T15:40:04.926Z,3.60
2023-01-19T15:42:34.872Z,2.35
2023-01-19T15:45:05.572Z,5.65
2023-01-19T15:47:34.793Z,3.60
2023-01-19T15:50:04.022Z,4.80
2023-01-19T15:52:33.644Z,6.25
2023-01-19T15:55:02.952Z,4.22
2023-01-19T15:57:32.115Z,4.53
2023-01-19T16:00:01.333Z,2.95
2023-01-19T16:02:34.065Z,1.80
2023-01-19T16:05:03.311Z,3.35
2023-01-19T16:07:32.686Z,2.60
2023-01-19T16:10:02.062Z,2.50
2023-01-19T16:12:31.379Z,3.00
2023-01-19T16:15:00.627Z,3.40
2023-01-19T16:17:30.090Z,3.00
2023-01-19T16:20:00.644Z,2.28
2023-01-19T16:22:29.850Z,3.10
2023-01-19T16:24:59.041Z,1.85
2023-01-19T16:27:30.017Z,1.77
2023-01-19T16:30:04.639Z,2.23
2023-01-19T16:32:35.158Z,2.10
2023-01-19T16:35:05.900Z,1.70
2023-01-19T16:37:35.276Z,2.10
2023-01-19T16:40:05.009Z,2.10
2023-01-19T16:42:34.145Z,2.50
2023-01-19T16:45:03.402Z,1.70
2023-01-19T16:47:32.760Z,1.83
2023-01-19T16:50:01.880Z,1.45
2023-01-19T16:52:32.313Z,2.22
2023-01-19T16:55:01.598Z,1.90
2023-01-19T16:57:31.166Z,2.13
2023-01-19T17:00:00.286Z,2.42
2023-01-19T17:02:29.735Z,2.17
2023-01-19T17:05:00.317Z,2.28
2023-01-19T17:07:29.553Z,6.10
2023-01-19T17:10:00.175Z,2.63
2023-01-19T17:12:31.407Z,2.10
2023-01-19T17:15:04.055Z,2.08
2023-01-19T17:17:34.996Z,2.03
2023-01-19T17:20:04.507Z,1.98
2023-01-19T17:22:33.899Z,2.10
2023-01-19T17:25:06.531Z,2.03
2023-01-19T17:27:36.790Z,3.20
2023-01-19T17:30:06.395Z,2.70
2023-01-19T17:32:35.759Z,2.92
2023-01-19T17:35:04.922Z,2.95
2023-01-19T17:37:34.062Z,2.53
2023-01-19T17:40:07.839Z,3.00
2023-01-19T17:42:40.348Z,3.40
2023-01-19T17:45:10.913Z,3.13
2023-01-19T17:47:40.029Z,4.28
2023-01-19T17:50:10.050Z,4.50
2023-01-19T17:52:39.372Z,4.22
2023-01-19T17:55:12.498Z,5.85
2023-01-19T17:57:41.554Z,8.07
2023-01-19T18:00:11.889Z,11.63
2023-01-19T18:02:50.687Z,8.80
2023-01-19T18:05:20.112Z,6.43
2023-01-19T18:07:49.730Z,6.95
2023-01-19T18:10:20.567Z,6.93
2023-01-19T18:12:49.641Z,6.25
2023-01-19T18:15:19.356Z,5.55
2023-01-19T18:17:48.370Z,4.13
2023-01-19T18:20:17.596Z,3.95
2023-01-19T18:22:47.155Z,5.03
2023-01-19T18:25:16.542Z,5.28
2023-01-19T18:27:47.661Z,5.47
2023-01-19T18:30:17.477Z,5.57
2023-01-19T18:32:46.868Z,5.10
2023-01-19T18:35:16.032Z,5.47
2023-01-19T18:37:45.268Z,4.43
2023-01-19T18:40:14.879Z,5.50
2023-01-19T18:42:44.124Z,6.50
2023-01-19T18:45:14.687Z,6.55
2023-01-19T18:47:44.057Z,5.80
2023-01-19T18:50:15.319Z,5.60
2023-01-19T18:52:44.913Z,6.07
2023-01-19T18:55:14.341Z,7.53
2023-01-19T18:57:43.517Z,8.32
2023-01-19T19:00:15.153Z,6.95
2023-01-19T19:02:44.650Z,8.10
2023-01-19T19:05:14.033Z,8.00
2023-01-19T19:07:43.609Z,5.97
2023-01-19T19:10:14.072Z,5.85
2023-01-19T19:12:43.771Z,6.07
2023-01-19T19:15:15.187Z,6.55
2023-01-19T19:20:15.152Z,7.60
2023-01-19T19:22:44.848Z,7.65
2023-01-19T19:25:18.486Z,7.35
2023-01-19T19:27:52.289Z,6.95
2023-01-19T19:30:26.527Z,8.27
2023-01-19T19:32:56.143Z,7.43
2023-01-19T19:35:26.046Z,8.18
2023-01-19T19:37:57.938Z,10.30
2023-01-19T19:40:28.137Z,11.48
2023-01-19T19:43:02.177Z,10.18
2023-01-19T19:45:33.414Z,11.15
2023-01-19T19:48:05.385Z,9.40
2023-01-19T19:50:36.998Z,10.25
2023-01-19T19:53:06.920Z,10.93
2023-01-19T19:55:36.980Z,11.30
2023-01-19T19:58:07.428Z,11.50
2023-01-19T20:00:38.958Z,10.15
2023-01-19T20:03:13.583Z,10.30
2023-01-19T20:05:43.400Z,11.25
2023-01-19T20:08:13.528Z,10.05
2023-01-19T20:10:44.124Z,11.25
2023-01-19T20:13:13.551Z,11.90
2023-01-19T20:15:45.083Z,12.00
2023-01-19T20:18:14.684Z,10.48
2023-01-19T20:20:44.965Z,9.88
2023-01-19T20:23:18.240Z,9.70
2023-01-19T20:25:48.825Z,9.30
2023-01-19T20:28:19.153Z,8.50
2023-01-19T20:30:54.880Z,9.15
2023-01-19T20:36:02.460Z,8.43
2023-01-19T20:38:36.761Z,9.20
2023-01-19T20:41:06.567Z,7.18
2023-01-19T20:43:41.780Z,8.20
2023-01-19T20:46:15.316Z,8.63
2023-01-19T20:48:46.616Z,7.97
2023-01-19T20:51:16.838Z,7.53
2023-01-19T20:53:46.117Z,7.35
2023-01-19T20:56:17.177Z,7.95
2023-01-19T20:58:46.811Z,8.05
2023-01-19T21:01:27.475Z,10.27
2023-01-19T21:04:02.408Z,9.05
2023-01-19T21:06:31.768Z,8.20
2023-01-19T21:09:01.345Z,7.90
2023-01-19T21:11:31.751Z,8.65
2023-01-19T21:14:01.849Z,8.45
2023-01-19T21:16:34.171Z,8.15
2023-01-19T21:19:03.286Z,8.15
2023-01-19T21:21:32.430Z,7.95
2023-01-19T21:24:26.543Z,6.95
2023-01-19T21:27:01.276Z,6.95
2023-01-19T21:29:30.761Z,8.23
2023-01-19T21:32:01.322Z,7.00
2023-01-19T21:34:30.450Z,8.50
2023-01-19T21:36:59.523Z,6.15
2023-01-19T21:39:29.308Z,7.43
2023-01-19T21:41:59.074Z,6.20
2023-01-19T21:44:28.492Z,6.22
2023-01-19T21:46:57.775Z,6.30
2023-01-19T21:49:29.086Z,7.50
2023-01-19T21:52:00.050Z,7.43
2023-01-19T21:54:29.924Z,6.63
2023-01-19T21:57:00.211Z,5.72
2023-01-19T21:59:29.576Z,5.97
2023-01-19T22:01:59.040Z,7.68
2023-01-19T22:04:32.002Z,6.82
2023-01-19T22:07:01.381Z,6.80
2023-01-19T22:09:32.442Z,6.45
2023-01-19T22:12:01.864Z,6.63
2023-01-19T22:14:31.314Z,7.82
2023-01-19T22:17:00.766Z,6.30
2023-01-19T22:19:31.832Z,6.97
2023-01-19T22:22:01.135Z,6.63
2023-01-19T22:24:30.555Z,6.45
2023-01-19T22:26:59.818Z,7.25
2023-01-19T22:29:28.910Z,5.55
2023-01-19T22:31:57.868Z,5.78
2023-01-19T22:34:27.210Z,6.22
2023-01-19T22:36:57.954Z,6.28
2023-01-19T22:39:26.966Z,7.27
2023-01-19T22:41:56.117Z,5.45
2023-01-19T22:44:25.351Z,6.03
2023-01-19T22:46:56.304Z,5.60
2023-01-19T22:49:25.471Z,4.97
2023-01-19T22:51:55.844Z,5.55
2023-01-19T22:54:26.575Z,5.43
2023-01-19T22:56:55.988Z,5.45
2023-01-19T22:59:24.905Z,4.93
2023-01-19T23:01:54.294Z,4.28
2023-01-19T23:04:23.432Z,4.25
2023-01-19T23:06:53.037Z,4.82
2023-01-19T23:09:22.628Z,3.67
2023-01-19T23:11:53.466Z,4.15
2023-01-19T23:14:23.790Z,4.30
2023-01-19T23:16:53.356Z,4.18
2023-01-19T23:19:22.923Z,3.70
2023-01-19T23:21:52.407Z,4.13
2023-01-19T23:24:21.521Z,3.10
2023-01-19T23:26:50.763Z,3.60
2023-01-19T23:29:21.388Z,3.42
2023-01-19T23:31:53.558Z,2.75
2023-01-19T23:34:22.753Z,3.58
2023-01-19T23:36:51.811Z,3.35
2023-01-19T23:39:22.175Z,2.17
2023-01-19T23:41:51.412Z,3.15
2023-01-19T23:44:21.935Z,2.92
2023-01-19T23:46:51.036Z,2.83
2023-01-19T23:49:20.681Z,2.95
2023-01-19T23:51:49.750Z,3.47
2023-01-19T23:54:19.326Z,2.85
2023-01-19T23:56:48.477Z,3.08
2023-01-19T23:59:19.893Z,2.60
